Time;durP1;ratioP1;P1;durP2;ratioP2;P2;SDS_P1;SDS_P2;PMS_P1;PMS_P2;Temp;Humidity;BMP_temperature;BMP_pressure;BME280_temperature;BME280_humidity;BME280_pressure;Samples;Min_cycle;Max_cycle;Signal;HPM_P1;HPM_P2
2021/09/13 00:05:05;;;;;;;8.50;7.40;;;18.20;99.90;;;;;;6186835;23;20795;-91
2021/09/13 01:00:11;;;;;;;8.13;7.33;;;17.60;99.90;;;;;;6179498;23;20519;-91
2021/09/13 01:02:39;;;;;;;8.87;7.13;;;17.60;99.90;;;;;;6187908;23;20414;-91
2021/09/13 01:05:07;;;;;;;7.70;6.97;;;17.60;99.90;;;;;;6182729;23;20472;-87
2021/09/13 01:07:35;;;;;;;7.90;7.10;;;17.60;99.90;;;;;;6185756;23;20402;-86
2021/09/13 01:10:02;;;;;;;7.03;6.40;;;17.70;99.90;;;;;;6184730;23;20408;-88
2021/09/13 01:12:30;;;;;;;7.97;7.27;;;17.60;99.90;;;;;;6185242;23;20416;-87
2021/09/13 01:14:56;;;;;;;7.37;6.77;;;17.50;99.90;;;;;;6185301;23;20434;-87
2021/09/13 01:17:25;;;;;;;7.50;6.80;;;17.50;99.90;;;;;;6184865;23;20421;-87
2021/09/13 01:19:51;;;;;;;7.43;6.83;;;17.50;99.90;;;;;;6185056;23;20406;-87
2021/09/13 01:22:20;;;;;;;6.50;6.00;;;17.50;99.90;;;;;;6185373;23;20398;-87
2021/09/13 01:24:48;;;;;;;10.43;6.87;;;17.40;99.90;;;;;;6185330;23;20827;-87
2021/09/13 01:27:15;;;;;;;7.30;6.50;;;17.40;99.90;;;;;;6185460;23;20402;-87
2021/09/13 01:29:42;;;;;;;9.03;7.10;;;17.50;99.90;;;;;;6185068;23;20402;-87
2021/09/13 01:32:09;;;;;;;6.50;5.90;;;17.50;99.90;;;;;;6185435;23;20629;-87
2021/09/13 01:34:36;;;;;;;6.97;6.23;;;17.50;99.90;;;;;;6185329;23;20426;-87
2021/09/13 01:37:03;;;;;;;6.87;6.20;;;17.50;99.90;;;;;;6185756;23;20463;-87
2021/09/13 01:39:30;;;;;;;6.43;5.93;;;17.50;99.90;;;;;;6194125;23;20442;-87
2021/09/13 01:41:58;;;;;;;7.70;7.00;;;17.40;99.90;;;;;;6213451;23;20410;-86
2021/09/13 01:44:26;;;;;;;6.43;5.80;;;17.50;99.90;;;;;;6213811;23;20409;-86
2021/09/13 01:46:52;;;;;;;7.20;6.10;;;17.40;99.90;;;;;;6211272;23;20405;-86
2021/09/13 01:49:19;;;;;;;6.87;6.20;;;17.40;99.90;;;;;;6201048;23;20406;-87
2021/09/13 01:51:46;;;;;;;6.30;5.70;;;17.30;99.90;;;;;;6187959;23;20417;-87
2021/09/13 01:54:13;;;;;;;7.23;6.10;;;17.30;99.90;;;;;;6189487;23;20789;-87
2021/09/13 01:56:40;;;;;;;6.40;5.60;;;17.30;99.90;;;;;;6188624;23;20746;-87
2021/09/13 01:59:08;;;;;;;7.53;5.70;;;17.20;99.90;;;;;;6188823;23;20766;-88
2021/09/13 02:01:34;;;;;;;7.00;5.70;;;17.20;99.90;;;;;;6188248;23;20410;-88
2021/09/13 02:04:03;;;;;;;5.90;5.40;;;17.10;99.90;;;;;;6194696;23;20437;-87
2021/09/13 02:06:30;;;;;;;8.67;6.03;;;17.20;99.90;;;;;;6188236;23;20808;-87
2021/09/13 02:08:57;;;;;;;6.90;6.13;;;17.10;99.90;;;;;;6187544;23;20414;-87
2021/09/13 02:11:23;;;;;;;6.30;5.80;;;17.00;99.90;;;;;;6187433;23;20428;-87
2021/09/13 02:13:50;;;;;;;7.60;6.80;;;17.00;99.90;;;;;;6186491;23;20432;-87
2021/09/13 02:16:18;;;;;;;7.03;6.20;;;17.00;99.90;;;;;;6186177;23;20414;-87
2021/09/13 02:18:45;;;;;;;6.70;6.13;;;16.90;99.90;;;;;;6188390;23;20438;-87
2021/09/13 02:21:11;;;;;;;7.60;6.90;;;16.90;99.90;;;;;;6191233;23;20398;-87
2021/09/13 02:23:38;;;;;;;8.33;7.50;;;16.80;99.90;;;;;;6210853;23;20406;-86
2021/09/13 02:26:05;;;;;;;8.73;7.97;;;16.80;99.90;;;;;;6206677;23;20407;-86
2021/09/13 02:28:31;;;;;;;10.43;8.10;;;16.80;99.90;;;;;;6209961;23;20413;-86
2021/09/13 02:30:58;;;;;;;7.20;6.60;;;16.70;99.90;;;;;;6193133;23;20882;-90
2021/09/13 02:33:26;;;;;;;9.30;7.53;;;16.70;99.90;;;;;;6189260;23;20406;-90
2021/09/13 02:35:53;;;;;;;9.03;7.67;;;16.70;99.90;;;;;;6187231;23;20412;-90
2021/09/13 02:38:20;;;;;;;10.70;8.00;;;16.70;99.90;;;;;;6186215;23;20778;-91
2021/09/13 02:40:47;;;;;;;11.73;6.93;;;16.70;99.90;;;;;;6186617;23;20810;-90
2021/09/13 02:43:13;;;;;;;9.80;7.63;;;16.60;99.90;;;;;;6186617;23;20410;-90
2021/09/13 02:45:40;;;;;;;7.40;6.70;;;16.60;99.90;;;;;;6185684;23;20892;-90
2021/09/13 02:48:07;;;;;;;9.03;7.27;;;16.60;99.90;;;;;;6186309;23;20430;-90
2021/09/13 02:50:35;;;;;;;9.70;7.70;;;16.60;99.90;;;;;;6187951;23;20390;-90
2021/09/13 02:53:02;;;;;;;8.50;7.10;;;16.60;99.90;;;;;;6191970;23;20398;-90
2021/09/13 02:55:29;;;;;;;9.87;7.87;;;16.60;99.90;;;;;;6194848;23;20427;-90
2021/09/13 02:57:55;;;;;;;7.20;6.60;;;16.60;99.90;;;;;;6185478;23;20896;-90
2021/09/13 03:00:22;;;;;;;9.13;8.33;;;16.60;99.90;;;;;;6186162;23;20411;-91
2021/09/13 03:02:50;;;;;;;7.40;6.80;;;16.60;99.90;;;;;;6185920;23;20428;-90
2021/09/13 03:05:16;;;;;;;10.87;7.80;;;16.60;99.90;;;;;;6185658;23;20427;-91
2021/09/13 03:07:44;;;;;;;8.30;7.60;;;16.60;99.90;;;;;;6186515;23;20743;-90
2021/09/13 03:10:12;;;;;;;7.67;6.87;;;16.60;99.90;;;;;;6186125;23;20873;-90
2021/09/13 03:12:39;;;;;;;7.70;6.80;;;16.60;99.90;;;;;;6185984;23;20406;-90
2021/09/13 03:15:08;;;;;;;10.23;7.63;;;16.60;99.90;;;;;;6185817;23;20416;-90
2021/09/13 03:17:35;;;;;;;8.10;7.40;;;16.60;99.90;;;;;;6185796;23;20406;-90
2021/09/13 03:20:02;;;;;;;9.00;8.10;;;16.70;99.90;;;;;;6187210;23;20448;-90
2021/09/13 03:22:29;;;;;;;8.73;7.90;;;16.60;99.90;;;;;;6186352;23;20418;-91
2021/09/13 03:24:58;;;;;;;8.63;7.80;;;16.60;99.90;;;;;;6186466;23;20448;-90
2021/09/13 03:27:24;;;;;;;9.60;7.83;;;16.50;99.90;;;;;;6186541;23;20403;-91
2021/09/13 03:29:51;;;;;;;11.10;8.50;;;16.50;99.90;;;;;;6187126;23;20395;-90
2021/09/13 03:32:18;;;;;;;6.93;6.30;;;16.60;99.90;;;;;;6207677;23;20450;-90
2021/09/13 03:34:45;;;;;;;9.03;6.73;;;16.60;99.90;;;;;;6203432;23;20436;-90
2021/09/13 03:37:12;;;;;;;8.10;7.30;;;16.60;99.90;;;;;;6186722;23;20409;-90
2021/09/13 03:39:39;;;;;;;7.90;7.20;;;16.60;99.90;;;;;;6186072;23;20441;-90
2021/09/13 03:42:08;;;;;;;7.27;6.57;;;16.50;99.90;;;;;;6207092;23;20414;-90
2021/09/13 03:44:34;;;;;;;8.10;7.40;;;16.60;99.90;;;;;;6199807;23;20434;-90
2021/09/13 03:47:01;;;;;;;8.77;7.93;;;16.50;99.90;;;;;;6187875;23;20426;-90
2021/09/13 03:49:28;;;;;;;9.27;7.60;;;16.60;99.90;;;;;;6185565;23;20485;-90
2021/09/13 03:51:55;;;;;;;8.07;7.33;;;16.60;99.90;;;;;;6185840;23;20783;-90
2021/09/13 03:54:21;;;;;;;8.57;7.67;;;16.60;99.90;;;;;;6185549;23;20437;-90
2021/09/13 03:56:48;;;;;;;8.80;8.00;;;16.60;99.90;;;;;;6186775;23;20805;-90
2021/09/13 03:59:16;;;;;;;8.57;7.63;;;16.50;99.90;;;;;;6191977;23;20532;-90
2021/09/13 04:01:43;;;;;;;9.30;7.97;;;16.60;99.90;;;;;;6185840;23;20420;-90
2021/09/13 04:04:10;;;;;;;9.10;8.13;;;16.60;99.90;;;;;;6184912;23;20444;-89
2021/09/13 04:06:44;;;;;;;10.93;8.43;;;16.60;99.90;;;;;;6186378;23;20410;-89
2021/09/13 04:11:55;;;;;;;8.93;8.20;;;16.50;99.90;;;;;;6190198;23;20413;-91
2021/09/13 04:14:25;;;;;;;13.33;8.20;;;16.60;99.90;;;;;;6209531;23;20423;-89
2021/09/13 04:16:52;;;;;;;8.67;7.77;;;16.50;99.90;;;;;;6189047;23;20395;-90
2021/09/13 04:19:20;;;;;;;8.77;7.93;;;16.50;99.90;;;;;;6185622;23;20439;-90
2021/09/13 04:21:47;;;;;;;8.93;8.13;;;16.30;99.90;;;;;;6185083;23;20425;-90
2021/09/13 04:24:14;;;;;;;15.57;8.90;;;16.30;99.90;;;;;;6185675;23;20924;-90
2021/09/13 04:26:40;;;;;;;9.50;8.70;;;16.30;99.90;;;;;;6185582;23;20850;-90
2021/09/13 04:29:07;;;;;;;13.30;8.77;;;16.40;99.90;;;;;;6185188;23;20424;-90
2021/09/13 04:31:36;;;;;;;8.50;7.70;;;16.40;99.90;;;;;;6185442;23;20410;-90
2021/09/13 04:34:03;;;;;;;11.17;8.30;;;16.30;99.90;;;;;;6185512;23;20433;-90
2021/09/13 04:36:30;;;;;;;11.17;9.50;;;16.30;99.90;;;;;;6185671;23;20497;-90
2021/09/13 04:38:57;;;;;;;12.20;7.93;;;16.30;99.90;;;;;;6185511;23;20434;-90
2021/09/13 04:41:24;;;;;;;10.20;8.13;;;16.20;99.90;;;;;;6185767;23;20397;-90
2021/09/13 04:43:51;;;;;;;8.80;7.90;;;16.10;99.90;;;;;;6185883;23;20775;-90
2021/09/13 04:46:18;;;;;;;9.30;8.30;;;16.10;99.90;;;;;;6185648;23;20481;-90
2021/09/13 04:48:46;;;;;;;12.87;8.37;;;16.10;99.90;;;;;;6185774;23;20410;-90
2021/09/13 04:51:13;;;;;;;12.30;7.83;;;16.10;99.90;;;;;;6185911;23;20401;-90
2021/09/13 04:53:42;;;;;;;11.23;8.20;;;16.10;99.90;;;;;;6185936;23;20751;-91
2021/09/13 04:56:09;;;;;;;8.47;7.67;;;16.10;99.90;;;;;;6186687;23;20489;-87
2021/09/13 04:58:36;;;;;;;10.40;8.27;;;16.10;99.90;;;;;;6192624;23;20406;-86
2021/09/13 05:01:07;;;;;;;10.63;8.70;;;16.20;99.90;;;;;;6193176;23;20403;-91
2021/09/13 05:03:34;;;;;;;8.47;7.60;;;16.20;99.90;;;;;;6187003;23;20529;-91
2021/09/13 05:06:03;;;;;;;9.03;7.60;;;16.20;99.90;;;;;;6190844;23;20397;-91
2021/09/13 05:08:30;;;;;;;8.47;7.57;;;16.20;99.90;;;;;;6187396;23;20396;-91
2021/09/13 05:10:57;;;;;;;8.43;7.63;;;16.20;99.90;;;;;;6190577;23;20409;-92
2021/09/13 05:13:23;;;;;;;10.17;7.83;;;16.20;99.90;;;;;;6187288;23;20406;-87
2021/09/13 05:15:50;;;;;;;9.43;7.40;;;16.20;99.90;;;;;;6185152;23;20402;-87
2021/09/13 05:18:17;;;;;;;11.17;7.73;;;16.30;99.90;;;;;;6192248;23;20414;-88
2021/09/13 05:20:44;;;;;;;7.80;6.83;;;16.30;99.90;;;;;;6211289;23;20431;-87
2021/09/13 05:23:15;;;;;;;6.90;6.20;;;16.20;99.90;;;;;;6190770;23;20897;-86
2021/09/13 05:25:51;;;;;;;7.80;7.10;;;16.30;99.90;;;;;;6191213;23;20390;-87
2021/09/13 05:28:21;;;;;;;7.93;7.13;;;16.30;99.90;;;;;;6214288;23;20393;-86
2021/09/13 05:30:48;;;;;;;7.63;6.83;;;16.30;99.90;;;;;;6214018;23;20416;-85
2021/09/13 05:33:15;;;;;;;7.97;7.17;;;16.30;99.90;;;;;;6214456;23;20418;-86
2021/09/13 05:35:42;;;;;;;7.37;6.67;;;16.20;99.90;;;;;;6212462;23;20406;-85
2021/09/13 05:38:09;;;;;;;7.70;7.00;;;16.30;99.90;;;;;;6207044;23;20429;-87
2021/09/13 05:40:39;;;;;;;6.95;6.25;;;16.30;99.90;;;;;;6198859;23;20411;-86
2021/09/13 05:43:07;;;;;;;7.03;6.33;;;16.40;99.90;;;;;;6190890;23;20198;-87
2021/09/13 05:45:34;;;;;;;7.53;6.90;;;16.40;99.90;;;;;;6212261;23;20400;-85
2021/09/13 05:48:01;;;;;;;8.00;7.30;;;16.50;99.90;;;;;;6214604;23;20403;-86
2021/09/13 05:50:31;;;;;;;8.00;6.63;;;16.50;99.90;;;;;;6213250;23;20394;-87
2021/09/13 05:52:58;;;;;;;14.97;9.17;;;16.50;99.90;;;;;;6214207;23;20477;-82
2021/09/13 05:55:24;;;;;;;9.47;8.57;;;16.50;99.90;;;;;;6212178;23;20450;-84
2021/09/13 05:57:52;;;;;;;12.47;9.63;;;16.60;99.90;;;;;;6213357;23;20410;-84
2021/09/13 06:00:20;;;;;;;11.83;9.83;;;16.70;99.90;;;;;;6213633;23;20430;-84
2021/09/13 06:02:46;;;;;;;9.80;8.90;;;16.80;99.90;;;;;;6212966;23;20396;-85
2021/09/13 06:05:15;;;;;;;12.27;9.77;;;16.80;99.90;;;;;;6207371;23;20448;-84
2021/09/13 06:07:42;;;;;;;10.70;9.60;;;16.80;99.90;;;;;;6190496;23;20397;-84
2021/09/13 06:10:09;;;;;;;11.20;8.80;;;16.80;99.90;;;;;;6188504;23;20412;-85
2021/09/13 06:12:36;;;;;;;9.33;8.13;;;16.80;99.90;;;;;;6188526;23;20409;-85
2021/09/13 06:15:05;;;;;;;11.40;9.10;;;16.80;99.90;;;;;;6186381;23;20428;-86
2021/09/13 06:17:32;;;;;;;13.23;10.13;;;16.70;99.90;;;;;;6187093;23;20402;-84
2021/09/13 06:19:58;;;;;;;12.57;11.07;;;16.80;99.90;;;;;;6185753;23;20988;-84
2021/09/13 06:22:25;;;;;;;14.33;10.13;;;16.90;99.90;;;;;;6186592;23;20466;-84
2021/09/13 06:24:52;;;;;;;11.90;9.10;;;17.00;99.90;;;;;;6188418;23;20419;-84
2021/09/13 06:27:19;;;;;;;12.23;9.20;;;16.90;99.90;;;;;;6186897;23;20731;-84
2021/09/13 06:29:46;;;;;;;13.77;9.47;;;17.00;99.90;;;;;;6186774;23;20410;-84
2021/09/13 06:32:14;;;;;;;13.53;9.50;;;17.10;99.90;;;;;;6187094;23;20447;-83
2021/09/13 06:34:41;;;;;;;13.03;10.37;;;17.10;99.90;;;;;;6188692;23;20807;-83
2021/09/13 06:37:08;;;;;;;14.20;9.97;;;17.20;99.90;;;;;;6189620;23;20406;-83
2021/09/13 06:39:34;;;;;;;14.93;11.03;;;17.20;99.90;;;;;;6189560;23;21104;-82
2021/09/13 06:42:01;;;;;;;13.50;10.17;;;17.30;99.90;;;;;;6190015;23;20901;-83
2021/09/13 06:44:29;;;;;;;12.83;10.40;;;17.40;99.90;;;;;;6191592;23;20764;-82
2021/09/13 06:47:04;;;;;;;12.57;11.00;;;17.50;99.90;;;;;;6191386;23;20419;-83
2021/09/13 06:49:34;;;;;;;12.50;9.97;;;17.50;99.90;;;;;;6189403;23;20928;-82
2021/09/13 06:52:01;;;;;;;12.17;9.57;;;17.60;99.90;;;;;;6187683;23;20489;-83
2021/09/13 06:54:27;;;;;;;10.60;8.73;;;17.70;99.90;;;;;;6186534;23;20437;-83
2021/09/13 06:56:56;;;;;;;12.40;9.50;;;17.80;99.90;;;;;;6186426;23;20817;-83
2021/09/13 06:59:23;;;;;;;11.10;9.97;;;17.90;99.90;;;;;;6186282;23;20443;-83
2021/09/13 07:01:50;;;;;;;14.53;11.27;;;17.90;99.90;;;;;;6186283;23;20905;-83
2021/09/13 07:04:17;;;;;;;23.50;12.40;;;18.00;99.90;;;;;;6182042;23;20461;-81
2021/09/13 07:06:45;;;;;;;15.73;10.83;;;18.20;99.90;;;;;;6194290;23;20408;-81
2021/09/13 07:09:12;;;;;;;15.57;11.80;;;18.30;99.90;;;;;;6194363;23;20411;-81
2021/09/13 07:11:38;;;;;;;14.23;11.33;;;18.40;99.90;;;;;;6195252;23;20403;-81
2021/09/13 07:14:05;;;;;;;19.13;12.20;;;18.50;99.90;;;;;;6194645;23;20493;-81
2021/09/13 07:16:32;;;;;;;16.83;11.67;;;18.40;99.90;;;;;;6194763;23;20484;-81
2021/09/13 07:19:00;;;;;;;14.60;9.87;;;18.30;99.90;;;;;;6195369;23;20398;-81
2021/09/13 07:21:27;;;;;;;15.53;10.27;;;18.70;99.90;;;;;;6195171;23;20442;-81
2021/09/13 07:23:55;;;;;;;12.63;11.00;;;18.90;99.90;;;;;;6195122;23;20913;-81
2021/09/13 07:26:22;;;;;;;12.73;10.80;;;19.10;99.90;;;;;;6195072;23;20407;-81
2021/09/13 07:28:49;;;;;;;17.07;11.50;;;19.40;99.90;;;;;;6194822;23;20408;-81
2021/09/13 07:31:15;;;;;;;15.63;10.97;;;19.50;99.90;;;;;;6194844;23;21108;-81
2021/09/13 07:33:42;;;;;;;11.83;10.53;;;19.70;99.90;;;;;;6194865;23;20414;-82
2021/09/13 07:36:09;;;;;;;17.73;11.70;;;19.80;99.90;;;;;;6193293;23;20429;-81
2021/09/13 07:38:35;;;;;;;12.00;10.83;;;19.80;99.90;;;;;;6212392;23;20407;-82
2021/09/13 07:41:04;;;;;;;13.27;11.23;;;19.80;99.90;;;;;;6204088;23;20543;-81
2021/09/13 07:43:31;;;;;;;10.97;9.87;;;19.80;99.90;;;;;;6195932;23;20500;-80
2021/09/13 07:45:59;;;;;;;16.60;10.43;;;19.90;99.90;;;;;;6201706;23;20430;-82
2021/09/13 07:48:26;;;;;;;12.70;10.03;;;19.80;99.90;;;;;;6202473;23;20421;-79
2021/09/13 07:50:53;;;;;;;12.50;10.83;;;20.00;99.90;;;;;;6203063;23;20915;-80
2021/09/13 07:53:19;;;;;;;9.80;8.80;;;20.10;99.90;;;;;;6197323;23;20419;-80
2021/09/13 07:55:46;;;;;;;11.47;9.53;;;20.20;99.90;;;;;;6195744;23;20439;-81
2021/09/13 07:58:14;;;;;;;12.40;8.43;;;20.00;99.90;;;;;;6201597;23;20409;-81
2021/09/13 08:00:41;;;;;;;8.87;8.07;;;20.40;99.90;;;;;;6195378;23;20488;-81
2021/09/13 08:03:08;;;;;;;9.13;8.30;;;20.50;99.90;;;;;;6195088;23;20402;-81
2021/09/13 08:05:34;;;;;;;11.07;9.10;;;20.70;99.90;;;;;;6194591;23;20444;-80
2021/09/13 08:08:01;;;;;;;10.10;9.13;;;20.90;99.90;;;;;;6194106;23;20509;-80
2021/09/13 08:10:28;;;;;;;9.63;7.07;;;20.90;99.90;;;;;;6196718;23;20398;-80
2021/09/13 08:12:54;;;;;;;10.80;6.60;;;20.90;99.90;;;;;;6197877;23;20407;-81
2021/09/13 08:15:23;;;;;;;9.03;7.60;;;21.00;99.90;;;;;;6194960;23;20426;-80
2021/09/13 08:17:50;;;;;;;9.10;7.10;;;21.00;99.90;;;;;;6194057;23;20924;-81
2021/09/13 08:20:17;;;;;;;8.80;7.73;;;21.20;99.90;;;;;;6193661;23;20435;-80
2021/09/13 08:22:44;;;;;;;8.43;7.63;;;21.00;99.90;;;;;;6196492;23;20935;-80
2021/09/13 08:25:10;;;;;;;10.27;7.47;;;21.20;99.90;;;;;;6196983;23;20428;-80
2021/09/13 08:27:37;;;;;;;10.77;7.53;;;21.60;99.90;;;;;;6197353;23;20415;-80
2021/09/13 08:30:05;;;;;;;7.10;6.20;;;21.90;99.90;;;;;;6195927;23;20408;-80
2021/09/13 08:32:33;;;;;;;7.77;6.53;;;21.90;99.90;;;;;;6196179;23;20412;-81
2021/09/13 08:35:00;;;;;;;6.67;6.00;;;22.40;99.90;;;;;;6194824;23;20427;-81
2021/09/13 08:37:26;;;;;;;7.13;6.10;;;22.30;99.90;;;;;;6197619;23;20415;-80
2021/09/13 08:39:53;;;;;;;7.13;4.93;;;22.70;99.90;;;;;;6199524;23;20472;-81
2021/09/13 08:42:20;;;;;;;5.10;4.70;;;22.90;99.20;;;;;;6194315;23;20437;-81
2021/09/13 08:44:49;;;;;;;5.80;5.30;;;23.80;97.90;;;;;;6193871;23;20963;-81
2021/09/13 08:47:19;;;;;;;5.53;5.03;;;24.30;96.80;;;;;;6194222;23;20421;-81
2021/09/13 08:49:50;;;;;;;5.70;5.30;;;24.70;95.60;;;;;;6192907;23;20413;-81
2021/09/13 08:52:17;;;;;;;6.40;5.20;;;26.00;94.30;;;;;;6192912;23;20398;-81
2021/09/13 08:54:44;;;;;;;5.50;4.97;;;27.40;91.40;;;;;;6190875;23;20443;-81
2021/09/13 08:57:14;;;;;;;6.53;5.93;;;27.70;88.30;;;;;;6191636;23;20394;-81
2021/09/13 08:59:40;;;;;;;6.87;6.37;;;27.30;87.30;;;;;;6195910;23;20479;-81
2021/09/13 09:02:07;;;;;;;9.53;7.73;;;27.10;86.90;;;;;;6197780;23;20415;-82
2021/09/13 09:04:34;;;;;;;6.50;5.90;;;28.60;84.80;;;;;;6194344;23;20456;-81
2021/09/13 09:07:09;;;;;;;6.33;5.80;;;30.70;77.30;;;;;;6194539;23;20419;-81
2021/09/13 09:09:37;;;;;;;6.63;5.47;;;32.20;71.00;;;;;;6196840;23;20409;-81
2021/09/13 09:12:07;;;;;;;6.00;5.30;;;33.70;64.40;;;;;;6198895;23;20472;-82
2021/09/13 09:14:39;;;;;;;5.90;5.40;;;33.60;59.20;;;;;;6197788;23;20422;-81
2021/09/13 09:17:07;;;;;;;6.10;5.50;;;34.00;58.20;;;;;;6197561;23;20394;-82
2021/09/13 09:19:34;;;;;;;6.20;4.93;;;33.60;57.50;;;;;;6196051;23;20406;-81
2021/09/13 09:22:24;;;;;;;5.53;5.03;;;33.90;57.90;;;;;;6199941;23;20429;-82
2021/09/13 09:24:52;;;;;;;6.10;5.07;;;35.20;56.10;;;;;;6200933;23;20433;-81
2021/09/13 09:27:19;;;;;;;6.93;4.90;;;35.40;53.10;;;;;;6199739;23;20780;-81
2021/09/13 09:29:46;;;;;;;5.07;4.40;;;35.90;52.90;;;;;;6197024;23;20402;-81
2021/09/13 09:32:20;;;;;;;5.37;4.90;;;35.40;51.40;;;;;;6196200;23;20398;-81
2021/09/13 09:34:47;;;;;;;5.80;4.70;;;34.70;52.60;;;;;;6195987;23;20432;-81
2021/09/13 09:37:14;;;;;;;5.67;5.07;;;36.30;51.00;;;;;;6196868;23;20416;-82
2021/09/13 09:39:44;;;;;;;6.10;4.93;;;35.80;49.80;;;;;;6195314;23;20426;-82
2021/09/13 09:42:13;;;;;;;4.93;4.00;;;36.70;49.10;;;;;;6200731;23;20485;-82
2021/09/13 09:44:45;;;;;;;5.40;4.90;;;38.20;47.20;;;;;;6213548;23;20436;-82
2021/09/13 09:47:13;;;;;;;5.10;4.53;;;37.80;45.90;;;;;;6201808;23;20374;-82
2021/09/13 09:49:45;;;;;;;6.10;4.20;;;37.20;45.90;;;;;;6196626;23;20428;-82
2021/09/13 09:52:12;;;;;;;5.33;4.83;;;37.60;46.50;;;;;;6195901;23;20386;-82
2021/09/13 09:54:39;;;;;;;5.03;4.53;;;39.20;44.60;;;;;;6196645;23;20452;-82
2021/09/13 09:57:09;;;;;;;4.70;4.30;;;39.30;43.70;;;;;;6195570;23;20406;-82
2021/09/13 09:59:37;;;;;;;4.30;4.00;;;38.90;43.90;;;;;;6195644;23;20412;-82
2021/09/13 10:02:14;;;;;;;5.80;5.27;;;40.20;42.70;;;;;;6196281;23;20444;-82
2021/09/13 10:04:42;;;;;;;5.57;5.00;;;39.10;43.30;;;;;;6197753;23;20433;-82
2021/09/13 10:07:13;;;;;;;4.90;4.60;;;39.40;43.00;;;;;;6194885;23;20375;-82
2021/09/13 10:09:41;;;;;;;4.60;4.20;;;38.70;43.40;;;;;;6193666;23;20879;-81
2021/09/13 10:12:11;;;;;;;6.13;5.53;;;39.50;42.50;;;;;;6195775;23;20402;-82
2021/09/13 10:14:38;;;;;;;4.80;4.40;;;39.50;42.30;;;;;;6198143;23;20433;-82
2021/09/13 10:17:05;;;;;;;5.90;4.17;;;39.60;42.30;;;;;;6197808;23;20405;-82
2021/09/13 10:19:33;;;;;;;5.30;4.47;;;39.50;42.50;;;;;;6194968;23;20405;-82
2021/09/13 10:22:01;;;;;;;4.80;4.40;;;39.80;42.40;;;;;;6194599;23;20782;-81
2021/09/13 10:24:31;;;;;;;6.30;4.20;;;40.50;41.40;;;;;;6193607;23;20453;-87
2021/09/13 10:27:06;;;;;;;3.97;3.67;;;40.80;41.20;;;;;;6189606;23;20417;-86
2021/09/13 10:29:34;;;;;;;4.73;4.43;;;41.70;40.20;;;;;;6189696;23;20414;-86
2021/09/13 10:32:12;;;;;;;4.70;4.30;;;42.40;38.80;;;;;;6197013;23;20394;-87
2021/09/13 10:34:50;;;;;;;5.20;4.80;;;42.90;38.20;;;;;;6200158;23;20425;-87
2021/09/13 10:37:18;;;;;;;5.00;4.07;;;41.50;39.00;;;;;;6189721;23;20424;-86
2021/09/13 10:40:33;;;;;;;5.07;4.23;;;41.10;39.70;;;;;;6188908;23;20504;-87
2021/09/13 10:43:27;;;;;;;6.10;5.13;;;41.10;39.00;;;;;;6188249;23;20410;-86
2021/09/13 10:45:56;;;;;;;4.47;4.17;;;39.90;41.10;;;;;;6186875;23;20532;-88
2021/09/13 10:48:23;;;;;;;4.70;4.30;;;39.30;42.00;;;;;;6189653;23;20366;-87
2021/09/13 10:50:51;;;;;;;5.10;4.70;;;40.40;40.90;;;;;;6189953;23;20425;-88
2021/09/13 10:53:35;;;;;;;4.80;4.40;;;39.60;41.20;;;;;;6203554;23;20406;-86
2021/09/13 10:56:09;;;;;;;4.70;4.40;;;38.10;43.90;;;;;;6189793;23;20418;-87
2021/09/13 10:58:39;;;;;;;4.87;4.07;;;39.10;42.20;;;;;;6189823;23;20429;-86
2021/09/13 11:01:09;;;;;;;4.73;4.43;;;38.00;43.50;;;;;;6189369;23;20932;-87
2021/09/13 11:03:47;;;;;;;6.40;5.53;;;38.60;43.20;;;;;;6188720;23;20416;-86
2021/09/13 11:06:40;;;;;;;3.90;3.60;;;38.60;42.80;;;;;;6189280;23;20422;-87
2021/09/13 11:09:22;;;;;;;6.30;5.90;;;39.90;41.80;;;;;;6188705;23;20390;-87
2021/09/13 11:11:57;;;;;;;4.37;3.97;;;41.70;39.40;;;;;;6196326;23;20417;-85
2021/09/13 11:14:25;;;;;;;4.17;3.97;;;41.10;39.00;;;;;;6201951;23;20440;-87
2021/09/13 11:16:55;;;;;;;5.43;5.03;;;42.10;38.60;;;;;;6205968;23;20402;-86
2021/09/13 11:19:24;;;;;;;4.60;4.30;;;42.60;37.00;;;;;;6197210;23;20747;-87
2021/09/13 11:21:52;;;;;;;4.00;3.70;;;43.30;35.90;;;;;;6200495;23;20433;-86
2021/09/13 11:24:21;;;;;;;4.10;3.80;;;42.50;36.30;;;;;;6200498;23;20422;-87
2021/09/13 11:26:56;;;;;;;3.40;3.20;;;42.60;36.40;;;;;;6194287;23;20409;-88
2021/09/13 11:29:26;;;;;;;4.20;3.90;;;43.40;36.10;;;;;;6210540;23;20386;-89
2021/09/13 11:32:00;;;;;;;4.60;4.20;;;43.70;34.70;;;;;;6195751;23;20410;-91
2021/09/13 11:34:32;;;;;;;4.33;4.03;;;41.10;37.00;;;;;;6198614;23;20522;-90
2021/09/13 11:37:03;;;;;;;4.23;3.93;;;39.70;39.40;;;;;;6197348;23;20375;-91
2021/09/13 11:39:34;;;;;;;4.70;4.30;;;39.20;41.30;;;;;;6203461;23;20441;-90
2021/09/13 11:42:08;;;;;;;5.03;4.53;;;39.20;41.00;;;;;;6209284;23;20453;-90
2021/09/13 11:44:41;;;;;;;4.30;4.00;;;39.10;41.00;;;;;;6212885;23;20440;-89
2021/09/13 11:47:11;;;;;;;5.40;5.00;;;40.10;39.50;;;;;;6212854;23;20417;-87
2021/09/13 11:49:44;;;;;;;4.97;4.60;;;39.90;39.40;;;;;;6213322;23;20394;-86
2021/09/13 11:52:23;;;;;;;4.47;4.00;;;40.80;38.00;;;;;;6213029;23;20409;-87
2021/09/13 11:54:56;;;;;;;5.10;4.60;;;39.70;38.90;;;;;;6211865;23;20508;-91
2021/09/13 11:57:37;;;;;;;4.80;4.40;;;37.80;41.40;;;;;;6210947;23;20428;-89
2021/09/13 12:00:10;;;;;;;4.70;4.10;;;36.70;43.40;;;;;;6211020;23;20414;-87
2021/09/13 12:02:41;;;;;;;5.90;5.47;;;34.70;46.90;;;;;;6211217;23;20422;-86
2021/09/13 12:08:32;;;;;;;4.20;3.80;;;32.50;50.70;;;;;;6190079;23;20412;-91
2021/09/13 12:11:25;;;;;;;4.10;3.80;;;33.40;50.40;;;;;;6199440;23;20449;-93
2021/09/13 12:13:52;;;;;;;4.47;4.17;;;33.60;49.40;;;;;;6200636;23;20421;-88
2021/09/13 12:16:19;;;;;;;4.57;4.17;;;33.10;49.90;;;;;;6207403;23;20408;-87
2021/09/13 12:18:47;;;;;;;5.10;4.80;;;32.80;51.30;;;;;;6195335;23;20398;-85
2021/09/13 12:21:18;;;;;;;5.10;4.60;;;33.30;51.40;;;;;;6187867;23;20442;-85
2021/09/13 12:23:55;;;;;;;4.70;4.37;;;35.30;48.00;;;;;;6186904;23;20497;-85
2021/09/13 12:26:25;;;;;;;5.57;5.17;;;37.20;43.70;;;;;;6187892;23;20413;-85
2021/09/13 12:28:52;;;;;;;4.50;4.20;;;38.80;40.90;;;;;;6187456;23;20458;-85
2021/09/13 12:31:26;;;;;;;4.03;3.83;;;39.10;39.50;;;;;;6189380;23;20418;-86
2021/09/13 12:33:56;;;;;;;4.30;4.10;;;38.00;40.00;;;;;;6186546;23;20398;-86
2021/09/13 12:36:25;;;;;;;4.70;4.37;;;36.60;42.80;;;;;;6186896;23;20449;-86
2021/09/13 12:38:53;;;;;;;4.60;4.30;;;35.20;45.30;;;;;;6189567;23;20707;-85
2021/09/13 12:41:31;;;;;;;5.10;4.70;;;34.20;47.00;;;;;;6187479;23;20445;-86
2021/09/13 12:43:58;;;;;;;4.63;4.27;;;34.50;47.20;;;;;;6193033;23;20371;-86
2021/09/13 12:46:24;;;;;;;5.90;4.50;;;35.50;46.00;;;;;;6195869;23;20489;-85
2021/09/13 12:49:00;;;;;;;4.30;4.00;;;35.90;44.70;;;;;;6186508;23;20406;-85
2021/09/13 12:51:27;;;;;;;4.37;4.07;;;34.90;46.10;;;;;;6186476;23;20413;-85
2021/09/13 12:53:55;;;;;;;4.23;3.93;;;34.10;47.50;;;;;;6187203;23;20418;-85
2021/09/13 12:56:22;;;;;;;4.57;4.27;;;33.80;48.00;;;;;;6199062;23;20408;-86
2021/09/13 12:58:48;;;;;;;4.60;4.20;;;32.80;49.20;;;;;;6189167;23;20417;-85
2021/09/13 13:01:29;;;;;;;3.93;3.63;;;32.70;49.90;;;;;;6187594;23;20446;-86
2021/09/13 13:04:02;;;;;;;5.03;4.63;;;33.80;48.70;;;;;;6188330;23;20413;-86
2021/09/13 13:06:29;;;;;;;5.63;4.20;;;36.20;45.30;;;;;;6186347;23;20460;-89
2021/09/13 13:08:55;;;;;;;5.00;4.27;;;37.90;42.50;;;;;;6206181;23;20470;-89
2021/09/13 13:11:23;;;;;;;3.83;3.50;;;38.40;40.50;;;;;;6203089;23;20465;-91
2021/09/13 13:13:49;;;;;;;4.17;3.87;;;38.70;40.80;;;;;;6192885;23;20450;-90
2021/09/13 13:16:16;;;;;;;4.10;3.70;;;39.20;39.30;;;;;;6196772;23;20812;-90
2021/09/13 13:18:43;;;;;;;4.10;3.80;;;40.20;38.30;;;;;;6212135;23;20400;-92
2021/09/13 13:21:11;;;;;;;4.40;3.90;;;38.80;38.90;;;;;;6207844;23;20433;-91
2021/09/13 13:23:38;;;;;;;4.23;3.83;;;37.50;40.10;;;;;;6210854;23;20825;-92
2021/09/13 13:26:05;;;;;;;3.93;3.63;;;36.10;42.40;;;;;;6206107;23;20442;-90
2021/09/13 13:28:32;;;;;;;4.67;4.37;;;34.20;44.90;;;;;;6190753;23;20786;-90
2021/09/13 13:30:59;;;;;;;4.37;3.87;;;33.50;46.60;;;;;;6189785;23;20386;-90
2021/09/13 13:33:26;;;;;;;3.67;3.37;;;32.70;47.30;;;;;;6190940;23;21007;-91
2021/09/13 13:35:53;;;;;;;4.07;3.77;;;32.30;48.50;;;;;;6189451;23;20433;-91
2021/09/13 13:38:23;;;;;;;5.50;4.00;;;32.40;48.90;;;;;;6189708;23;20413;-90
2021/09/13 13:40:50;;;;;;;4.50;4.20;;;32.20;49.10;;;;;;6196848;23;20485;-91
2021/09/13 13:43:17;;;;;;;3.70;3.40;;;31.30;50.30;;;;;;6211423;23;20497;-90
2021/09/13 13:45:48;;;;;;;3.93;3.63;;;30.90;51.00;;;;;;6205862;23;20434;-91
2021/09/13 13:48:19;;;;;;;4.00;3.70;;;30.80;51.50;;;;;;6193978;23;20414;-90
2021/09/13 13:50:46;;;;;;;3.63;3.33;;;31.10;51.40;;;;;;6197265;23;20386;-91
2021/09/13 13:53:13;;;;;;;4.07;3.67;;;31.20;51.50;;;;;;6214303;23;20392;-91